createdAt,value
2018-09-12T00:02:05.624Z,85.56
2018-09-12T00:04:33.364Z,85.04
2018-09-12T00:07:02.262Z,85.03
2018-09-12T00:09:30.009Z,85.01
2018-09-12T00:11:58.344Z,84.75
2018-09-12T00:14:27.248Z,84.58
2018-09-12T00:16:54.982Z,84.59
2018-09-12T00:19:24.799Z,84.56
2018-09-12T00:21:52.536Z,84.55
2018-09-12T00:24:21.430Z,84.69
2018-09-12T00:26:49.169Z,84.61
2018-09-12T00:29:18.088Z,84.58
2018-09-12T00:31:45.818Z,84.60
2018-09-12T00:34:14.736Z,84.76
2018-09-12T00:36:43.042Z,84.66
2018-09-12T00:39:10.785Z,84.54
2018-09-12T00:41:39.685Z,84.66
2018-09-12T00:44:07.554Z,84.51
2018-09-12T00:46:36.411Z,84.48
2018-09-12T00:49:04.158Z,84.25
2018-09-12T00:51:33.071Z,84.13
2018-09-12T00:54:01.415Z,83.94
2018-09-12T00:56:29.754Z,83.90
2018-09-12T00:58:57.489Z,83.80
2018-09-12T01:01:25.812Z,83.78
2018-09-12T01:03:54.168Z,83.58
2018-09-12T01:06:23.108Z,83.43
2018-09-12T01:08:50.855Z,83.29
2018-09-12T01:11:19.758Z,83.35
2018-09-12T01:13:47.493Z,83.36
2018-09-12T01:16:16.419Z,83.32
2018-09-12T01:18:44.717Z,83.24
2018-09-12T01:21:12.454Z,83.17
2018-09-12T01:23:40.793Z,83.02
2018-09-12T01:26:09.690Z,82.72
2018-09-12T01:28:38.829Z,82.77
2018-09-12T01:31:07.159Z,82.80
2018-09-12T01:33:35.479Z,82.71
2018-09-12T01:36:03.803Z,82.64
2018-09-12T01:38:32.135Z,82.67
2018-09-12T01:41:00.465Z,82.61
2018-09-12T01:43:28.775Z,82.70
2018-09-12T01:45:57.371Z,82.50
2018-09-12T01:48:25.470Z,82.40
2018-09-12T01:50:53.230Z,82.30
2018-09-12T01:53:22.361Z,82.16
2018-09-12T01:55:50.453Z,82.06
2018-09-12T01:58:18.205Z,81.87
2018-09-12T02:00:47.105Z,81.75
2018-09-12T02:03:15.445Z,81.56
2018-09-12T02:05:43.761Z,81.45
2018-09-12T02:08:12.077Z,81.28
2018-09-12T02:10:40.395Z,81.01
2018-09-12T02:13:08.150Z,81.20
2018-09-12T02:15:37.051Z,80.93
2018-09-12T02:18:04.791Z,80.83
2018-09-12T02:20:33.108Z,80.91
2018-09-12T02:23:02.013Z,80.87
2018-09-12T02:25:30.328Z,80.97
2018-09-12T02:27:58.641Z,80.90
2018-09-12T02:30:26.968Z,80.88
2018-09-12T02:32:55.298Z,80.98
2018-09-12T02:35:23.611Z,80.99
2018-09-12T02:37:51.932Z,81.00
2018-09-12T02:40:19.671Z,80.97
2018-09-12T02:42:47.999Z,80.99
2018-09-12T02:45:16.322Z,80.98
2018-09-12T02:47:45.293Z,80.93
2018-09-12T02:50:13.029Z,80.91
2018-09-12T02:52:41.370Z,80.93
2018-09-12T02:55:09.665Z,80.86
2018-09-12T02:57:38.562Z,81.03
2018-09-12T03:00:06.887Z,80.97
2018-09-12T03:02:34.632Z,81.17
2018-09-12T03:05:02.958Z,81.15
2018-09-12T03:07:31.282Z,81.25
2018-09-12T03:10:00.179Z,81.25
2018-09-12T03:12:27.918Z,81.31
2018-09-12T03:14:56.814Z,81.89
2018-09-12T03:17:25.140Z,82.71
2018-09-12T03:19:52.875Z,82.88
2018-09-12T03:22:21.777Z,82.85
2018-09-12T03:24:49.526Z,82.94
2018-09-12T03:27:18.421Z,83.01
2018-09-12T03:29:46.172Z,83.24
2018-09-12T03:32:15.074Z,83.17
2018-09-12T03:34:43.421Z,83.25
2018-09-12T03:37:11.160Z,83.24
2018-09-12T03:39:40.078Z,83.70
2018-09-12T03:42:08.395Z,83.44
2018-09-12T03:44:36.710Z,83.38
2018-09-12T03:47:05.027Z,83.57
2018-09-12T03:49:32.804Z,83.49
2018-09-12T03:52:01.717Z,83.49
2018-09-12T03:54:30.038Z,83.37
2018-09-12T03:56:57.784Z,83.28
2018-09-12T03:59:26.114Z,83.27
2018-09-12T04:01:55.015Z,83.26
2018-09-12T04:04:23.344Z,83.36
2018-09-12T04:06:51.078Z,83.33
2018-09-12T04:09:19.978Z,83.38
2018-09-12T04:11:47.732Z,83.52
2018-09-12T04:14:16.063Z,83.72
2018-09-12T04:16:44.419Z,83.89
2018-09-12T04:19:12.705Z,84.03
2018-09-12T04:21:41.849Z,84.23
2018-09-12T04:24:09.363Z,84.29
2018-09-12T04:26:37.666Z,84.28
2018-09-12T04:29:06.564Z,84.26
2018-09-12T04:31:34.889Z,84.20
2018-09-12T04:34:03.201Z,84.22
2018-09-12T04:36:30.944Z,84.27
2018-09-12T04:38:59.840Z,84.24
2018-09-12T04:41:28.170Z,84.09
2018-09-12T04:43:55.919Z,84.08
2018-09-12T04:46:24.835Z,84.07
2018-09-12T04:48:53.155Z,84.19
2018-09-12T04:51:21.528Z,84.10
2018-09-12T04:53:49.829Z,84.23
2018-09-12T04:56:18.181Z,84.28
2018-09-12T04:58:46.999Z,84.32
2018-09-12T05:01:14.737Z,84.19
2018-09-12T05:03:43.646Z,84.30
2018-09-12T05:06:11.385Z,84.53
2018-09-12T05:08:40.280Z,84.57
2018-09-12T05:11:08.040Z,84.88
2018-09-12T05:13:36.957Z,85.19
2018-09-12T05:16:05.328Z,85.05
2018-09-12T05:18:33.638Z,85.06
2018-09-12T05:21:01.375Z,84.84
2018-09-12T05:23:29.709Z,84.87
2018-09-12T05:25:58.613Z,84.48
2018-09-12T05:28:26.977Z,84.48
2018-09-12T05:30:55.754Z,84.15
2018-09-12T05:33:24.567Z,84.13
2018-09-12T05:35:52.896Z,83.92
2018-09-12T05:38:21.221Z,83.89
2018-09-12T05:40:49.539Z,83.72
2018-09-12T05:43:17.865Z,83.69
2018-09-12T05:45:46.204Z,83.59
2018-09-12T05:48:13.957Z,83.45
2018-09-12T05:50:42.278Z,83.22
2018-09-12T05:53:11.144Z,82.89
2018-09-12T05:55:38.995Z,82.85
2018-09-12T05:58:07.905Z,82.63
2018-09-12T06:00:36.237Z,82.42
2018-09-12T06:03:04.565Z,82.15
2018-09-12T06:05:32.325Z,81.88
2018-09-12T06:08:00.666Z,81.52
2018-09-12T06:10:29.007Z,81.56
2018-09-12T06:12:57.917Z,81.09
2018-09-12T06:15:26.291Z,80.98
2018-09-12T06:17:54.633Z,80.96
2018-09-12T06:20:22.393Z,80.93
2018-09-12T06:22:51.540Z,80.83
2018-09-12T06:25:19.069Z,80.73
2018-09-12T06:27:47.410Z,80.10
2018-09-12T06:30:16.329Z,80.29
2018-09-12T06:32:44.664Z,79.97
2018-09-12T06:35:13.032Z,79.32
2018-09-12T06:37:41.379Z,79.59
2018-09-12T06:40:09.707Z,79.32
2018-09-12T06:42:38.041Z,78.91
2018-09-12T06:45:05.809Z,78.38
2018-09-12T06:47:34.147Z,78.44
2018-09-12T06:50:03.059Z,77.69
2018-09-12T06:52:31.385Z,77.14
2018-09-12T06:54:59.735Z,76.64
2018-09-12T06:57:28.701Z,76.74
2018-09-12T06:59:56.471Z,76.06
2018-09-12T07:02:24.811Z,76.26
2018-09-12T07:04:53.153Z,75.62
2018-09-12T07:07:20.897Z,75.96
2018-09-12T07:09:49.850Z,75.62
2018-09-12T07:12:18.192Z,75.24
2018-09-12T07:14:46.510Z,75.21
2018-09-12T07:17:14.852Z,75.49
2018-09-12T07:19:43.198Z,75.30
2018-09-12T07:22:11.818Z,75.18
2018-09-12T07:24:39.913Z,74.88
2018-09-12T07:27:08.240Z,74.64
2018-09-12T07:29:35.993Z,74.74
2018-09-12T07:32:04.892Z,74.86
2018-09-12T07:34:33.217Z,74.40
2018-09-12T07:37:01.535Z,74.54
2018-09-12T07:39:30.069Z,74.17
2018-09-12T07:44:52.964Z,74.27
2018-09-12T07:47:38.115Z,73.95
2018-09-12T07:49:58.757Z,74.03
2018-09-12T07:52:27.137Z,73.71
2018-09-12T07:54:55.879Z,72.96
2018-09-12T07:57:23.623Z,72.46
2018-09-12T07:59:52.607Z,72.65
2018-09-12T08:02:21.015Z,71.98
2018-09-12T08:04:49.397Z,70.93
2018-09-12T08:07:17.725Z,71.14
2018-09-12T08:09:45.482Z,70.84
2018-09-12T08:12:14.439Z,70.89
2018-09-12T08:14:44.172Z,71.33
2018-09-12T08:17:11.300Z,71.59
2018-09-12T08:19:40.942Z,71.50
2018-09-12T08:22:08.232Z,71.45
2018-09-12T08:24:36.374Z,71.57
2018-09-12T08:27:04.763Z,71.91
2018-09-12T08:29:33.109Z,71.97
2018-09-12T08:32:01.486Z,72.07
2018-09-12T08:34:29.831Z,71.75
2018-09-12T08:36:58.186Z,71.67
2018-09-12T08:39:26.520Z,71.90
2018-09-12T08:41:54.963Z,71.71
2018-09-12T08:44:23.274Z,71.68
2018-09-12T08:46:51.033Z,71.77
2018-09-12T08:49:19.998Z,71.76
2018-09-12T08:51:48.339Z,72.01
2018-09-12T08:54:16.693Z,72.00
2018-09-12T08:56:45.122Z,72.30
2018-09-12T08:59:12.849Z,72.56
2018-09-12T09:01:42.399Z,72.71
2018-09-12T09:04:13.943Z,72.56
2018-09-12T09:06:41.793Z,72.78
2018-09-12T09:09:10.722Z,72.97
2018-09-12T09:11:39.107Z,72.97
2018-09-12T09:14:07.448Z,73.22
2018-09-12T09:16:35.777Z,73.69
2018-09-12T09:19:04.117Z,73.77
2018-09-12T09:21:32.457Z,74.28
2018-09-12T09:24:00.762Z,74.47
2018-09-12T09:26:29.139Z,74.29
2018-09-12T09:28:56.873Z,74.14
2018-09-12T09:31:25.777Z,73.85
2018-09-12T09:33:54.135Z,73.50
2018-09-12T09:36:22.521Z,73.38
2018-09-12T09:38:50.946Z,72.85
2018-09-12T09:41:19.252Z,72.79
2018-09-12T09:43:47.582Z,72.36
2018-09-12T09:46:15.921Z,72.84
2018-09-12T09:48:44.270Z,72.87
2018-09-12T09:51:12.582Z,73.83
2018-09-12T09:53:40.900Z,74.60
2018-09-12T09:56:09.354Z,75.14
2018-09-12T09:58:37.727Z,74.91
2018-09-12T10:01:05.466Z,74.73
2018-09-12T10:03:34.411Z,74.83
2018-09-12T10:06:02.338Z,74.75
2018-09-12T10:08:31.083Z,74.57
2018-09-12T10:11:00.038Z,75.60
2018-09-12T10:13:28.380Z,76.05
2018-09-12T10:15:56.688Z,76.36
2018-09-12T10:18:25.011Z,76.12
2018-09-12T10:20:53.425Z,75.76
2018-09-12T10:23:21.785Z,76.21
2018-09-12T10:25:50.160Z,77.35
2018-09-12T10:28:18.501Z,78.29
2018-09-12T10:30:46.341Z,78.25
2018-09-12T10:33:15.161Z,77.98
2018-09-12T10:35:42.904Z,77.49
2018-09-12T10:38:11.820Z,77.22
2018-09-12T10:40:40.191Z,77.59
2018-09-12T10:43:07.948Z,77.67
2018-09-12T10:45:36.796Z,77.80
2018-09-12T10:48:05.320Z,77.83
2018-09-12T10:50:33.639Z,77.66
2018-09-12T10:53:01.980Z,77.45
2018-09-12T10:55:29.730Z,77.34
2018-09-12T10:57:58.634Z,77.45
2018-09-12T11:00:26.857Z,77.05
2018-09-12T11:02:55.669Z,76.70
2018-09-12T11:05:24.006Z,76.37
2018-09-12T11:07:52.322Z,76.07
2018-09-12T11:10:20.716Z,75.95
2018-09-12T11:12:49.056Z,76.10
2018-09-12T11:15:17.410Z,76.91
2018-09-12T11:17:45.711Z,77.94
2018-09-12T11:20:14.061Z,77.76
2018-09-12T11:22:42.383Z,77.43
2018-09-12T11:25:10.706Z,77.29
2018-09-12T11:27:39.073Z,76.98
2018-09-12T11:30:07.401Z,76.18
2018-09-12T11:32:35.740Z,75.92
2018-09-12T11:35:04.087Z,75.96
2018-09-12T11:37:46.158Z,74.26
2018-09-12T11:40:14.071Z,73.43
2018-09-12T11:42:42.332Z,73.94
2018-09-12T11:45:11.272Z,73.80
2018-09-12T11:47:39.650Z,73.22
2018-09-12T11:50:08.060Z,73.11
2018-09-12T11:52:36.343Z,73.01
2018-09-12T11:55:04.928Z,73.16
2018-09-12T11:57:33.014Z,73.54
2018-09-12T12:00:01.358Z,73.76
2018-09-12T12:02:29.700Z,73.79
2018-09-12T12:04:58.368Z,74.06
2018-09-12T12:07:27.314Z,74.20
2018-09-12T12:09:55.884Z,74.18
2018-09-12T12:12:24.334Z,74.01
2018-09-12T12:14:53.676Z,73.82
2018-09-12T12:17:21.492Z,73.45
2018-09-12T12:19:50.586Z,73.54
2018-09-12T12:22:18.684Z,73.93
2018-09-12T12:24:46.436Z,74.26
2018-09-12T12:27:14.758Z,73.98
2018-09-12T12:29:43.070Z,74.05
2018-09-12T12:32:11.968Z,74.33
2018-09-12T12:34:40.297Z,74.72
2018-09-12T12:37:08.038Z,75.26
2018-09-12T12:39:36.940Z,75.15
2018-09-12T12:42:05.262Z,75.98
2018-09-12T12:44:33.586Z,77.53
2018-09-12T12:47:01.325Z,79.01
2018-09-12T12:49:30.241Z,79.21
2018-09-12T12:51:57.977Z,79.12
2018-09-12T12:54:26.285Z,79.11
2018-09-12T12:56:54.617Z,80.41
2018-09-12T12:59:23.297Z,81.00
2018-09-12T13:01:51.614Z,80.48
2018-09-12T13:04:20.025Z,80.44
2018-09-12T13:06:48.291Z,80.67
2018-09-12T13:09:17.202Z,80.20
2018-09-12T13:11:44.939Z,80.45
2018-09-12T13:14:13.849Z,80.64
2018-09-12T13:16:42.179Z,79.88
2018-09-12T13:19:10.562Z,79.97
2018-09-12T13:21:39.091Z,77.93
2018-09-12T13:24:06.645Z,78.42
2018-09-12T13:26:35.579Z,78.29
2018-09-12T13:29:03.983Z,78.21
2018-09-12T13:31:32.307Z,78.29
2018-09-12T13:34:00.147Z,77.74
2018-09-12T13:36:29.079Z,77.22
2018-09-12T13:38:57.435Z,78.01
2018-09-12T13:41:25.921Z,78.47
2018-09-12T13:43:54.272Z,78.79
2018-09-12T13:46:22.618Z,78.19
2018-09-12T13:48:50.945Z,76.54
2018-09-12T13:51:19.300Z,76.57
2018-09-12T13:53:47.651Z,76.39
2018-09-12T13:56:16.193Z,75.44
2018-09-12T13:58:44.535Z,76.00
2018-09-12T14:01:12.646Z,74.94
2018-09-12T14:03:40.385Z,73.15
2018-09-12T14:06:09.427Z,72.55
2018-09-12T14:11:30.529Z,72.21
2018-09-12T14:13:58.899Z,71.97
2018-09-12T14:16:27.258Z,71.31
2018-09-12T14:18:55.590Z,70.31
2018-09-12T14:21:24.137Z,68.99
2018-09-12T14:23:53.062Z,69.24
2018-09-12T14:26:22.291Z,68.85
2018-09-12T14:28:51.717Z,68.98
2018-09-12T14:31:19.612Z,69.40
2018-09-12T14:33:48.418Z,69.95
2018-09-12T14:36:16.755Z,70.54
2018-09-12T14:38:45.117Z,71.07
2018-09-12T14:41:22.520Z,71.57
2018-09-12T14:43:50.856Z,72.02
2018-09-12T14:46:19.182Z,72.21
2018-09-12T14:48:47.522Z,73.29
2018-09-12T14:51:15.844Z,74.57
2018-09-12T14:53:44.180Z,75.63
2018-09-12T14:56:12.514Z,76.31
2018-09-12T14:58:40.857Z,76.71
2018-09-12T15:01:09.190Z,77.03
2018-09-12T15:03:37.521Z,77.21
2018-09-12T15:06:05.871Z,77.70
2018-09-12T15:08:33.628Z,78.62
2018-09-12T15:11:02.533Z,79.35
2018-09-12T15:13:30.869Z,79.32
2018-09-12T15:15:59.209Z,79.03
2018-09-12T15:18:27.538Z,79.14
2018-09-12T15:20:55.902Z,80.00
2018-09-12T15:23:23.640Z,79.60
2018-09-12T15:25:52.568Z,79.68
2018-09-12T15:28:20.905Z,79.97
2018-09-12T15:30:48.646Z,79.99
2018-09-12T15:33:17.153Z,80.07
2018-09-12T15:35:45.362Z,80.05
2018-09-12T15:38:13.701Z,80.31
2018-09-12T15:40:42.053Z,80.34
2018-09-12T15:43:10.976Z,80.63
2018-09-12T15:45:39.316Z,80.58
2018-09-12T15:48:07.659Z,80.61
2018-09-12T15:50:36.005Z,80.91
2018-09-12T15:53:05.060Z,81.27
2018-09-12T15:55:32.700Z,81.03
2018-09-12T15:58:00.510Z,81.10
2018-09-12T16:00:29.434Z,81.18
2018-09-12T16:02:57.793Z,81.06
2018-09-12T16:05:26.131Z,81.14
2018-09-12T16:07:55.171Z,81.09
2018-09-12T16:10:23.797Z,81.31
2018-09-12T16:12:52.351Z,81.56
2018-09-12T16:15:20.552Z,81.39
2018-09-12T16:17:48.217Z,81.30
2018-09-12T16:20:17.144Z,81.02
2018-09-12T16:22:45.500Z,80.88
2018-09-12T16:25:13.256Z,80.96
2018-09-12T16:27:41.642Z,81.18
2018-09-12T16:30:10.558Z,81.37
2018-09-12T16:32:39.445Z,81.43
2018-09-12T16:35:07.697Z,81.32
2018-09-12T16:37:36.041Z,81.10
2018-09-12T16:40:04.390Z,81.32
2018-09-12T16:42:32.100Z,81.58
2018-09-12T16:45:01.038Z,81.83
2018-09-12T16:47:29.361Z,82.13
2018-09-12T16:49:57.110Z,82.17
2018-09-12T16:52:26.042Z,81.99
2018-09-12T16:54:54.374Z,81.94
2018-09-12T16:57:22.785Z,81.74
2018-09-12T16:59:51.163Z,81.67
2018-09-12T17:02:19.505Z,81.63
2018-09-12T17:04:47.879Z,81.47
2018-09-12T17:07:16.241Z,81.17
2018-09-12T17:09:44.014Z,81.11
2018-09-12T17:12:13.160Z,80.89
2018-09-12T17:14:41.737Z,80.62
2018-09-12T17:17:10.925Z,80.50
2018-09-12T17:19:39.739Z,80.50
2018-09-12T17:31:01.184Z,79.65
2018-09-12T17:33:28.949Z,79.61
2018-09-12T17:35:57.868Z,79.71
2018-09-12T17:38:26.203Z,79.76
2018-09-12T17:40:54.542Z,79.77
2018-09-12T17:43:22.875Z,79.91
2018-09-12T17:45:50.628Z,79.93
2018-09-12T17:48:19.930Z,80.12
2018-09-12T17:50:51.774Z,80.11
2018-09-12T17:53:19.820Z,79.86
2018-09-12T17:55:48.221Z,79.99
2018-09-12T17:58:16.508Z,80.03
2018-09-12T18:00:44.857Z,80.12
2018-09-12T18:03:13.383Z,79.90
2018-09-12T18:08:15.827Z,80.90
2018-09-12T18:10:45.936Z,81.87
2018-09-12T18:18:51.798Z,82.59
2018-09-12T18:21:20.856Z,82.63
2018-09-12T18:23:52.303Z,82.42
2018-09-12T18:26:23.265Z,82.56
2018-09-12T18:28:52.410Z,82.65
2018-09-12T18:31:22.569Z,82.49
2018-09-12T18:37:03.107Z,82.13
2018-09-12T18:45:24.413Z,80.96
2018-09-12T18:47:52.983Z,80.89
2018-09-12T18:50:20.516Z,80.78
2018-09-12T18:52:49.436Z,80.73
2018-09-12T18:55:17.782Z,80.58
2018-09-12T18:57:45.542Z,80.68
2018-09-12T19:00:15.441Z,80.67
2018-09-12T19:02:43.779Z,80.74
2018-09-12T19:05:12.105Z,80.77
2018-09-12T19:07:39.921Z,80.63
2018-09-12T19:10:09.099Z,80.70
2018-09-12T19:12:37.240Z,80.75
2018-09-12T19:15:05.589Z,80.86
2018-09-12T19:17:33.955Z,81.38
2018-09-12T19:20:02.576Z,81.26
2018-09-12T19:22:30.855Z,81.34
2018-09-12T19:24:59.283Z,81.32
2018-09-12T19:27:27.583Z,81.11
2018-09-12T19:29:55.971Z,81.11
2018-09-12T19:32:24.752Z,80.98
2018-09-12T19:34:52.961Z,80.81
2018-09-12T19:37:21.892Z,80.57
2018-09-12T19:39:50.268Z,80.37
2018-09-12T19:42:22.372Z,79.81
2018-09-12T19:44:50.689Z,79.28
2018-09-12T19:47:19.772Z,79.09
2018-09-12T19:49:47.518Z,78.74
2018-09-12T19:52:15.927Z,78.44
2018-09-12T19:54:43.776Z,78.02
2018-09-12T19:57:12.893Z,78.27
2018-09-12T19:59:41.368Z,78.10
2018-09-12T20:02:09.789Z,78.33
2018-09-12T20:04:38.134Z,78.41
2018-09-12T20:07:06.614Z,78.48
2018-09-12T20:09:34.914Z,78.71
2018-09-12T20:12:02.750Z,78.78
2018-09-12T20:14:33.590Z,78.78
2018-09-12T20:17:01.930Z,78.87
2018-09-12T20:19:30.490Z,78.90
2018-09-12T20:21:58.648Z,78.94
2018-09-12T20:24:26.482Z,79.17
2018-09-12T20:26:55.378Z,79.22
2018-09-12T20:29:23.756Z,79.21
2018-09-12T20:31:52.219Z,78.93
2018-09-12T20:34:21.241Z,78.95
2018-09-12T20:36:49.270Z,78.75
2018-09-12T20:39:17.603Z,78.83
2018-09-12T20:41:45.957Z,78.86
2018-09-12T20:44:14.317Z,78.95
2018-09-12T20:46:42.682Z,78.96
2018-09-12T20:49:11.030Z,78.93
2018-09-12T20:51:39.370Z,78.83
2018-09-12T20:54:07.956Z,78.71
2018-09-12T20:56:35.481Z,78.55
2018-09-12T20:59:04.406Z,78.64
2018-09-12T21:01:32.176Z,78.70
2018-09-12T21:04:01.097Z,78.60
2018-09-12T21:06:29.430Z,78.92
2018-09-12T21:08:57.173Z,79.09
2018-09-12T21:11:26.094Z,79.28
2018-09-12T21:13:54.443Z,79.38
2018-09-12T21:16:22.194Z,79.32
2018-09-12T21:18:51.104Z,79.01
2018-09-12T21:21:19.417Z,78.85
2018-09-12T21:23:47.734Z,78.82
2018-09-12T21:26:15.506Z,78.85
2018-09-12T21:28:43.824Z,78.78
2018-09-12T21:31:12.728Z,78.31
2018-09-12T21:33:42.066Z,78.37
2018-09-12T21:36:08.965Z,78.16
2018-09-12T21:38:37.304Z,77.80
2018-09-12T21:41:06.203Z,76.99
2018-09-12T21:43:34.523Z,77.01
2018-09-12T21:46:02.843Z,77.26
2018-09-12T21:48:30.582Z,77.21
2018-09-12T21:50:59.481Z,75.51
2018-09-12T21:53:27.398Z,76.06
2018-09-12T21:55:56.139Z,76.43
2018-09-12T21:58:23.889Z,75.98
2018-09-12T22:00:52.813Z,76.09
2018-09-12T22:03:21.129Z,75.98
2018-09-12T22:05:49.461Z,76.01
2018-09-12T22:08:17.769Z,76.10
2018-09-12T22:10:46.114Z,76.18
2018-09-12T22:13:13.881Z,76.24
2018-09-12T22:15:42.774Z,76.33
2018-09-12T22:18:11.095Z,76.45
2018-09-12T22:20:39.417Z,76.54
2018-09-12T22:23:07.166Z,76.80
2018-09-12T22:25:36.076Z,76.60
2018-09-12T22:28:04.387Z,76.45
2018-09-12T22:30:32.124Z,76.49
2018-09-12T22:33:01.029Z,76.34
2018-09-12T22:35:29.347Z,76.35
2018-09-12T22:37:57.085Z,76.33
2018-09-12T22:40:25.410Z,76.36
2018-09-12T22:42:54.317Z,76.12
2018-09-12T22:45:22.644Z,75.81
2018-09-12T22:47:50.973Z,75.76
2018-09-12T22:50:18.726Z,75.52
2018-09-12T22:52:47.643Z,75.33
2018-09-12T22:55:15.384Z,75.24
2018-09-12T22:57:44.281Z,75.34
2018-09-12T23:00:12.609Z,75.28
2018-09-12T23:02:40.357Z,75.01
2018-09-12T23:05:09.256Z,74.86
2018-09-12T23:07:37.007Z,73.99
2018-09-12T23:10:05.902Z,74.25
2018-09-12T23:12:33.655Z,74.34
2018-09-12T23:15:02.555Z,74.33
2018-09-12T23:17:30.292Z,74.24
2018-09-12T23:19:58.624Z,74.20
2018-09-12T23:22:27.516Z,73.90
2018-09-12T23:24:55.834Z,73.86
2018-09-12T23:27:24.151Z,73.54
2018-09-12T23:29:51.889Z,73.60
2018-09-12T23:32:20.208Z,73.29
2018-09-12T23:34:49.120Z,73.36
2018-09-12T23:37:16.859Z,73.37
2018-09-12T23:39:45.184Z,73.15
2018-09-12T23:42:14.087Z,73.24
2018-09-12T23:44:41.830Z,73.16
2018-09-12T23:47:10.732Z,73.25
2018-09-12T23:49:39.055Z,73.58
2018-09-12T23:52:07.367Z,73.78
2018-09-12T23:54:35.700Z,73.96
2018-09-12T23:57:03.441Z,73.91
2018-09-12T23:59:32.346Z,73.87
